Time;durP1;ratioP1;P1;durP2;ratioP2;P2;SDS_P1;SDS_P2;PMS_P1;PMS_P2;Temp;Humidity;BMP_temperature;BMP_pressure;BME280_temperature;BME280_humidity;BME280_pressure;Samples;Min_cycle;Max_cycle;Signal;HPM_P1;HPM_P2
2023/12/09 00:00:42;;;;;;;31.08;15.15;;;0.50;99.90;;;;;;4951884;28;20029;-60
2023/12/09 00:03:08;;;;;;;32.75;15.20;;;0.50;99.90;;;;;;4921685;28;21701;-55
2023/12/09 00:05:34;;;;;;;35.90;16.70;;;0.50;99.90;;;;;;4953527;28;20108;-57
2023/12/09 00:08:00;;;;;;;30.88;14.00;;;0.50;99.90;;;;;;4947729;28;20041;-56
2023/12/09 00:10:25;;;;;;;27.45;13.85;;;0.60;99.90;;;;;;4933654;28;20125;-57
2023/12/09 00:12:51;;;;;;;26.35;14.60;;;0.50;99.90;;;;;;4942105;28;20506;-58
2023/12/09 00:15:16;;;;;;;27.35;13.35;;;0.60;99.90;;;;;;4909736;28;20080;-57
2023/12/09 00:17:43;;;;;;;30.42;13.10;;;0.60;99.90;;;;;;4932506;28;20093;-61
2023/12/09 00:20:09;;;;;;;28.52;13.63;;;0.50;99.90;;;;;;4968145;28;20033;-56
2023/12/09 00:22:34;;;;;;;28.55;13.85;;;0.60;99.90;;;;;;4947465;28;20038;-57
2023/12/09 00:25:00;;;;;;;27.42;13.38;;;0.60;99.90;;;;;;4943473;28;20040;-57
2023/12/09 00:27:25;;;;;;;23.13;12.32;;;0.60;99.90;;;;;;4946046;28;20065;-58
2023/12/09 00:29:51;;;;;;;23.27;12.45;;;0.60;99.90;;;;;;4940616;28;20084;-58
2023/12/09 00:32:17;;;;;;;26.05;12.75;;;0.60;99.90;;;;;;4965881;28;22313;-58
2023/12/09 00:34:42;;;;;;;29.50;13.38;;;0.60;99.90;;;;;;4943436;28;20048;-59
2023/12/09 00:37:08;;;;;;;27.02;13.88;;;0.60;99.90;;;;;;4909605;28;20593;-56
2023/12/09 00:39:33;;;;;;;32.33;14.55;;;0.60;99.90;;;;;;4927057;28;20079;-58
2023/12/09 00:41:59;;;;;;;33.53;15.57;;;0.70;99.90;;;;;;4930690;28;21550;-57
2023/12/09 00:44:25;;;;;;;31.90;13.38;;;0.70;99.90;;;;;;4999129;28;20037;-58
2023/12/09 00:46:50;;;;;;;27.00;14.18;;;0.70;99.90;;;;;;4939904;28;20034;-57
2023/12/09 00:49:16;;;;;;;25.00;13.65;;;0.70;99.90;;;;;;4939919;28;20483;-60
2023/12/09 00:51:42;;;;;;;28.83;14.85;;;0.70;99.90;;;;;;4938846;28;20038;-58
2023/12/09 00:54:07;;;;;;;32.25;14.25;;;0.70;99.90;;;;;;4934624;28;20068;-59
2023/12/09 00:56:33;;;;;;;24.45;12.07;;;0.70;99.90;;;;;;5003259;28;20556;-56
2023/12/09 00:58:58;;;;;;;30.55;14.75;;;0.70;99.90;;;;;;4934893;28;20034;-56
2023/12/09 01:01:24;;;;;;;29.77;13.02;;;0.70;99.90;;;;;;4937739;28;20080;-59
2023/12/09 01:03:50;;;;;;;30.73;12.93;;;0.70;99.90;;;;;;4953933;28;20045;-58
2023/12/09 01:06:16;;;;;;;27.60;14.60;;;0.70;99.90;;;;;;4960282;28;20022;-58
2023/12/09 01:08:42;;;;;;;24.42;12.40;;;0.70;99.90;;;;;;4988301;28;20105;-59
2023/12/09 01:11:07;;;;;;;29.50;12.68;;;0.70;99.90;;;;;;4961204;28;20107;-59
2023/12/09 01:13:33;;;;;;;28.25;11.52;;;0.70;99.90;;;;;;4979731;28;20065;-59
2023/12/09 01:15:58;;;;;;;34.65;13.45;;;0.70;99.90;;;;;;4970938;28;21744;-58
2023/12/09 01:18:24;;;;;;;31.88;12.57;;;0.70;99.90;;;;;;4992997;28;20021;-58
2023/12/09 01:20:50;;;;;;;24.73;10.88;;;0.70;99.90;;;;;;4972372;28;20076;-58
2023/12/09 01:23:15;;;;;;;21.73;12.82;;;0.70;99.90;;;;;;4984688;28;20088;-53
2023/12/09 01:25:41;;;;;;;24.98;10.77;;;0.70;99.90;;;;;;4970185;28;20026;-54
2023/12/09 01:28:06;;;;;;;23.60;11.63;;;0.70;99.90;;;;;;4987848;28;20034;-57
2023/12/09 01:30:32;;;;;;;26.60;11.60;;;0.70;99.90;;;;;;4999914;28;20057;-59
2023/12/09 01:32:57;;;;;;;22.73;10.57;;;0.70;99.90;;;;;;4978361;28;20030;-58
2023/12/09 01:35:23;;;;;;;27.00;11.07;;;0.70;99.90;;;;;;4973418;28;20629;-59
2023/12/09 01:37:49;;;;;;;32.20;14.23;;;0.80;99.90;;;;;;4949579;28;20046;-58
2023/12/09 01:40:15;;;;;;;27.55;12.02;;;0.80;99.90;;;;;;4982651;28;20033;-59
2023/12/09 01:42:43;;;;;;;30.13;11.32;;;0.80;99.90;;;;;;4985664;28;20022;-60
2023/12/09 01:45:10;;;;;;;27.92;11.30;;;0.80;99.90;;;;;;4983963;28;20490;-59
2023/12/09 01:47:37;;;;;;;31.83;13.13;;;0.80;99.90;;;;;;4975788;28;20065;-59
2023/12/09 01:50:03;;;;;;;24.75;11.55;;;0.80;99.90;;;;;;4978611;28;20110;-58
2023/12/09 01:52:31;;;;;;;24.77;11.45;;;0.80;99.90;;;;;;4977740;28;20500;-58
2023/12/09 01:54:57;;;;;;;26.10;12.05;;;0.80;99.90;;;;;;4973163;28;20101;-57
2023/12/09 01:57:23;;;;;;;29.40;12.70;;;0.80;99.90;;;;;;4995369;28;20023;-57
2023/12/09 01:59:48;;;;;;;28.35;12.02;;;0.80;99.90;;;;;;4977160;28;20022;-58
2023/12/09 02:02:14;;;;;;;29.73;12.73;;;0.90;99.90;;;;;;4972493;28;20680;-59
2023/12/09 02:04:40;;;;;;;22.88;10.20;;;0.90;99.90;;;;;;4980712;28;20030;-58
2023/12/09 02:07:05;;;;;;;31.95;12.88;;;0.90;99.90;;;;;;4913039;28;20463;-58
2023/12/09 02:09:32;;;;;;;34.17;12.73;;;0.90;99.90;;;;;;4939964;28;20112;-58
2023/12/09 02:12:39;;;;;;;23.10;11.30;;;0.90;99.90;;;;;;4898389;28;20053;-60
2023/12/09 02:15:18;;;;;;;;;;;0.90;99.90;;;;;;4847567;29;22221;-58
2023/12/09 02:18:09;;;;;;;23.38;11.70;;;0.90;99.90;;;;;;4963433;28;19967;-57
2023/12/09 02:20:34;;;;;;;27.90;12.05;;;0.90;99.90;;;;;;4970376;28;20045;-57
2023/12/09 02:23:13;;;;;;;23.38;12.23;;;1.00;99.90;;;;;;4906288;28;20034;-54
2023/12/09 02:25:40;;;;;;;25.73;12.20;;;0.90;99.90;;;;;;4919485;28;20034;-57
2023/12/09 02:28:14;;;;;;;29.20;12.93;;;0.90;99.90;;;;;;4915194;28;20034;-59
2023/12/09 02:30:46;;;;;;;29.25;11.63;;;0.90;99.90;;;;;;4926615;28;20029;-60
2023/12/09 02:33:14;;;;;;;30.85;12.70;;;0.90;99.90;;;;;;4925109;28;22360;-60
2023/12/09 02:35:42;;;;;;;32.90;13.00;;;1.00;99.90;;;;;;4965408;28;20045;-57
2023/12/09 02:38:11;;;;;;;32.00;12.52;;;1.00;99.90;;;;;;4914534;28;20100;-58
2023/12/09 02:40:38;;;;;;;32.90;12.40;;;1.00;99.90;;;;;;4912230;28;20506;-56
2023/12/09 02:43:05;;;;;;;24.40;11.38;;;1.00;99.90;;;;;;4894646;28;20045;-57
2023/12/09 02:45:30;;;;;;;25.73;11.52;;;1.00;99.90;;;;;;4937270;28;20021;-58
2023/12/09 02:47:56;;;;;;;28.67;13.25;;;1.00;99.90;;;;;;4915449;28;20038;-60
2023/12/09 02:50:22;;;;;;;33.50;12.55;;;1.00;99.90;;;;;;4939350;28;20021;-58
2023/12/09 02:52:47;;;;;;;23.08;11.52;;;1.00;99.90;;;;;;4907789;28;20105;-57
2023/12/09 02:55:13;;;;;;;29.98;13.48;;;1.10;99.90;;;;;;4903062;28;20022;-59
2023/12/09 02:57:38;;;;;;;25.15;12.13;;;1.00;99.90;;;;;;4933551;28;20482;-60
2023/12/09 03:00:06;;;;;;;23.45;11.60;;;1.10;99.90;;;;;;4939656;28;20703;-59
2023/12/09 03:02:32;;;;;;;20.50;12.05;;;1.10;99.90;;;;;;4966702;28;21463;-58
2023/12/09 03:04:58;;;;;;;29.75;12.30;;;1.10;99.90;;;;;;4967848;28;20053;-58
2023/12/09 03:07:24;;;;;;;41.72;12.55;;;1.10;99.90;;;;;;4940965;28;20026;-56
2023/12/09 03:09:49;;;;;;;22.35;11.20;;;1.10;99.90;;;;;;4927347;28;20080;-56
2023/12/09 03:12:15;;;;;;;25.13;11.13;;;1.10;99.90;;;;;;4991548;28;20510;-55
2023/12/09 03:14:41;;;;;;;46.17;12.18;;;1.10;99.90;;;;;;4955716;28;20036;-57
2023/12/09 03:17:07;;;;;;;24.00;10.48;;;1.10;99.90;;;;;;4963125;28;20145;-57
2023/12/09 03:19:32;;;;;;;26.42;11.25;;;1.10;99.90;;;;;;4947472;28;20120;-56
2023/12/09 03:21:58;;;;;;;24.45;10.45;;;1.10;99.90;;;;;;4959190;28;21564;-55
2023/12/09 03:24:24;;;;;;;25.67;10.73;;;1.10;99.90;;;;;;4976538;28;20433;-57
2023/12/09 03:26:50;;;;;;;26.25;11.27;;;1.10;99.90;;;;;;4939406;28;20041;-58
2023/12/09 03:29:16;;;;;;;45.85;12.38;;;1.10;99.90;;;;;;4970031;28;20026;-57
2023/12/09 03:31:42;;;;;;;23.35;10.98;;;1.10;99.90;;;;;;4967193;28;20101;-56
2023/12/09 03:34:08;;;;;;;32.13;11.95;;;1.20;99.90;;;;;;4943312;28;20117;-56
2023/12/09 03:36:33;;;;;;;35.60;14.23;;;1.20;99.90;;;;;;5005057;28;20164;-56
2023/12/09 03:38:59;;;;;;;35.28;12.20;;;1.20;99.90;;;;;;4948398;28;20030;-55
2023/12/09 03:41:24;;;;;;;31.52;13.10;;;1.20;99.90;;;;;;4931408;28;20164;-54
2023/12/09 03:43:50;;;;;;;33.35;12.70;;;1.30;99.90;;;;;;4961666;28;20033;-55
2023/12/09 03:46:15;;;;;;;27.08;12.00;;;1.30;99.90;;;;;;4957464;28;20072;-57
2023/12/09 03:48:41;;;;;;;32.60;14.57;;;1.30;99.90;;;;;;4966496;28;20052;-60
2023/12/09 03:51:07;;;;;;;29.92;13.20;;;1.30;99.90;;;;;;4921825;28;20463;-57
2023/12/09 03:53:32;;;;;;;32.78;13.18;;;1.30;99.90;;;;;;4958218;28;20091;-56
2023/12/09 03:55:58;;;;;;;28.38;12.68;;;1.30;99.90;;;;;;4946904;28;20565;-53
2023/12/09 03:58:23;;;;;;;34.17;12.82;;;1.30;99.90;;;;;;4954231;28;20525;-57
2023/12/09 04:00:49;;;;;;;28.55;11.85;;;1.30;99.90;;;;;;4925438;28;20037;-57
2023/12/09 04:03:15;;;;;;;27.45;10.85;;;1.30;99.90;;;;;;4953842;28;21613;-55
2023/12/09 04:05:41;;;;;;;44.50;15.15;;;1.30;99.90;;;;;;4950989;28;20034;-56
2023/12/09 04:08:07;;;;;;;35.90;13.77;;;1.30;99.90;;;;;;4918341;28;20033;-56
2023/12/09 04:10:33;;;;;;;30.35;14.25;;;1.40;99.90;;;;;;4939861;28;20041;-57
2023/12/09 04:12:59;;;;;;;41.28;14.25;;;1.40;99.90;;;;;;4926101;28;21777;-57
2023/12/09 04:15:25;;;;;;;28.52;12.65;;;1.40;99.90;;;;;;4944519;28;20061;-54
2023/12/09 04:17:50;;;;;;;27.75;12.40;;;1.40;99.90;;;;;;4937799;28;20433;-54
2023/12/09 04:20:17;;;;;;;30.98;12.98;;;1.40;99.90;;;;;;4932383;28;20029;-60
2023/12/09 04:22:42;;;;;;;29.48;12.15;;;1.40;99.90;;;;;;4923350;28;20113;-56
2023/12/09 04:25:08;;;;;;;28.15;13.63;;;1.40;99.90;;;;;;4941696;28;21754;-55
2023/12/09 04:27:34;;;;;;;23.33;10.88;;;1.40;99.90;;;;;;4984416;28;20572;-56
2023/12/09 04:30:05;;;;;;;30.27;12.48;;;1.40;99.90;;;;;;4915870;28;20669;-54
2023/12/09 04:32:31;;;;;;;26.95;12.68;;;1.40;99.90;;;;;;4946702;28;21494;-55
2023/12/09 04:34:58;;;;;;;27.38;12.32;;;1.40;99.90;;;;;;4951018;28;20033;-57
2023/12/09 04:37:25;;;;;;;26.60;11.85;;;1.40;99.90;;;;;;4945740;28;20030;-57
2023/12/09 04:39:50;;;;;;;26.38;11.73;;;1.40;99.90;;;;;;4908899;28;20030;-57
2023/12/09 04:42:17;;;;;;;23.80;12.07;;;1.40;99.90;;;;;;5004562;28;20033;-58
2023/12/09 04:44:43;;;;;;;24.95;11.52;;;1.40;99.90;;;;;;4940743;28;20129;-58
2023/12/09 04:47:08;;;;;;;31.75;11.35;;;1.40;99.90;;;;;;4943282;28;20034;-57
2023/12/09 04:49:34;;;;;;;27.70;12.60;;;1.40;99.90;;;;;;4946158;28;20096;-57
2023/12/09 04:52:00;;;;;;;25.50;11.73;;;1.40;99.90;;;;;;4933520;28;22912;-57
2023/12/09 04:54:25;;;;;;;34.97;14.93;;;1.40;99.90;;;;;;4994727;28;20057;-58
2023/12/09 04:56:51;;;;;;;27.65;12.68;;;1.40;99.90;;;;;;4952860;28;20026;-57
2023/12/09 04:59:16;;;;;;;27.17;11.63;;;1.40;99.90;;;;;;4935889;28;20026;-59
2023/12/09 05:01:42;;;;;;;21.48;10.65;;;1.40;99.90;;;;;;4945160;28;20038;-60
2023/12/09 05:04:08;;;;;;;22.95;11.30;;;1.40;99.90;;;;;;4921929;28;22382;-57
2023/12/09 05:06:34;;;;;;;27.65;12.00;;;1.40;99.90;;;;;;5004004;28;20405;-57
2023/12/09 05:09:00;;;;;;;22.25;11.50;;;1.50;99.90;;;;;;4944580;28;20033;-59
2023/12/09 05:11:25;;;;;;;36.05;13.32;;;1.50;99.90;;;;;;4939715;28;20153;-56
2023/12/09 05:13:51;;;;;;;32.30;12.75;;;1.50;99.90;;;;;;4934210;28;20575;-56
2023/12/09 05:16:16;;;;;;;27.88;12.70;;;1.50;99.90;;;;;;4926088;28;20045;-59
2023/12/09 05:18:42;;;;;;;30.77;13.50;;;1.50;99.90;;;;;;4978643;28;20037;-60
2023/12/09 05:21:08;;;;;;;28.80;13.68;;;1.50;99.90;;;;;;4954732;28;20025;-57
2023/12/09 05:23:33;;;;;;;24.55;11.57;;;1.50;99.90;;;;;;4925497;28;20038;-57
2023/12/09 05:25:59;;;;;;;28.38;14.00;;;1.50;99.90;;;;;;4938394;28;20025;-57
2023/12/09 05:28:25;;;;;;;32.03;14.15;;;1.60;99.90;;;;;;4959755;28;20034;-59
2023/12/09 05:30:51;;;;;;;24.27;12.35;;;1.60;99.90;;;;;;4957455;28;20022;-60
2023/12/09 05:33:17;;;;;;;35.95;12.43;;;1.60;99.90;;;;;;4988510;28;20284;-54
2023/12/09 05:35:42;;;;;;;30.58;14.60;;;1.60;99.90;;;;;;4950440;28;20148;-56
2023/12/09 05:38:08;;;;;;;25.75;13.02;;;1.60;99.90;;;;;;4946959;28;20021;-59
2023/12/09 05:40:33;;;;;;;29.85;14.68;;;1.60;99.90;;;;;;4899857;28;20030;-57
2023/12/09 05:42:59;;;;;;;42.20;14.93;;;1.60;99.90;;;;;;4920868;28;20108;-57
2023/12/09 05:45:25;;;;;;;39.97;16.00;;;1.70;99.90;;;;;;4980573;28;20495;-58
2023/12/09 05:47:50;;;;;;;35.40;15.40;;;1.70;99.90;;;;;;4932514;28;20379;-54
2023/12/09 05:50:16;;;;;;;26.83;13.73;;;1.70;99.90;;;;;;4920102;28;20026;-57
2023/12/09 05:52:42;;;;;;;41.35;16.45;;;1.70;99.90;;;;;;4941970;28;20022;-57
2023/12/09 05:55:07;;;;;;;32.33;14.23;;;1.80;99.90;;;;;;4940195;28;21640;-58
2023/12/09 05:57:33;;;;;;;28.75;13.43;;;1.80;99.90;;;;;;4984403;28;20529;-57
2023/12/09 05:59:58;;;;;;;53.03;16.58;;;1.80;99.90;;;;;;4919738;28;20038;-58
2023/12/09 06:02:24;;;;;;;49.10;17.13;;;1.80;99.90;;;;;;4932952;28;20034;-57
2023/12/09 06:04:50;;;;;;;36.42;16.05;;;1.80;99.90;;;;;;4942645;28;20643;-57
2023/12/09 06:07:15;;;;;;;35.88;14.95;;;1.80;99.90;;;;;;4957682;28;20038;-57
2023/12/09 06:09:41;;;;;;;47.53;16.80;;;1.80;99.90;;;;;;4980741;28;20038;-58
2023/12/09 06:12:07;;;;;;;45.38;14.90;;;1.90;99.90;;;;;;4925870;28;20045;-57
2023/12/09 06:14:32;;;;;;;31.08;14.02;;;1.90;99.90;;;;;;4918537;28;20025;-54
2023/12/09 06:16:58;;;;;;;45.58;17.52;;;1.90;99.90;;;;;;4920704;28;21602;-57
2023/12/09 06:19:23;;;;;;;34.80;15.68;;;1.90;99.90;;;;;;4929667;28;20414;-56
2023/12/09 06:21:49;;;;;;;35.08;14.63;;;1.90;99.90;;;;;;4963635;28;20041;-60
2023/12/09 06:24:15;;;;;;;42.28;16.98;;;1.90;99.90;;;;;;4924619;28;20556;-57
2023/12/09 06:26:44;;;;;;;48.00;18.00;;;1.90;99.90;;;;;;4933353;28;20673;-54
2023/12/09 06:29:16;;;;;;;42.75;17.33;;;1.90;99.90;;;;;;4934166;28;20057;-55
2023/12/09 06:31:41;;;;;;;39.83;16.63;;;2.00;99.90;;;;;;4894499;28;20097;-60
2023/12/09 06:34:07;;;;;;;41.13;17.95;;;2.00;99.90;;;;;;4930869;28;21988;-57
2023/12/09 06:36:33;;;;;;;34.08;16.02;;;2.00;99.90;;;;;;4974889;28;20564;-54
2023/12/09 06:38:58;;;;;;;29.15;16.48;;;2.00;99.90;;;;;;4929263;28;20507;-57
2023/12/09 06:41:24;;;;;;;36.88;15.43;;;2.00;99.90;;;;;;4905004;28;20117;-54
2023/12/09 06:43:49;;;;;;;33.50;16.33;;;2.00;99.90;;;;;;4919066;28;20026;-53
2023/12/09 06:46:15;;;;;;;32.38;16.75;;;2.10;99.90;;;;;;4945624;28;20132;-57
2023/12/09 06:48:41;;;;;;;38.40;16.23;;;2.10;99.90;;;;;;4970305;28;20030;-54
2023/12/09 06:51:14;;;;;;;35.75;17.55;;;2.10;99.90;;;;;;4926673;28;20036;-56
2023/12/09 06:53:40;;;;;;;31.50;15.95;;;2.10;99.90;;;;;;4924027;28;20587;-55
2023/12/09 06:56:06;;;;;;;35.83;15.57;;;2.10;99.90;;;;;;4915768;28;20022;-55
2023/12/09 06:58:31;;;;;;;35.40;15.43;;;2.10;99.90;;;;;;4933941;28;20037;-56
2023/12/09 07:00:57;;;;;;;25.55;14.05;;;2.10;99.90;;;;;;4923856;28;20034;-59
2023/12/09 07:03:23;;;;;;;41.33;16.40;;;2.10;99.90;;;;;;4947406;28;20493;-55
2023/12/09 07:05:48;;;;;;;32.95;15.50;;;2.20;99.90;;;;;;4920590;28;20088;-56
2023/12/09 07:08:14;;;;;;;34.30;15.90;;;2.20;99.90;;;;;;4916015;28;20045;-55
2023/12/09 07:10:44;;;;;;;31.63;14.75;;;2.20;99.90;;;;;;4911440;28;20023;-59
2023/12/09 07:13:10;;;;;;;34.60;16.70;;;2.20;99.90;;;;;;4945923;28;21356;-56
2023/12/09 07:15:35;;;;;;;35.58;17.48;;;2.10;99.90;;;;;;4978055;28;20041;-57
2023/12/09 07:18:01;;;;;;;37.90;16.23;;;2.20;99.90;;;;;;4917028;28;20034;-56
2023/12/09 07:20:27;;;;;;;37.45;17.35;;;2.20;99.90;;;;;;4912731;28;20040;-55
2023/12/09 07:22:52;;;;;;;36.58;17.33;;;2.20;99.90;;;;;;4912691;28;20099;-56
2023/12/09 07:25:18;;;;;;;30.88;14.65;;;2.20;99.90;;;;;;4944811;28;20703;-56
2023/12/09 07:27:43;;;;;;;32.85;14.90;;;2.20;99.90;;;;;;4974241;28;20499;-53
2023/12/09 07:30:09;;;;;;;28.38;14.50;;;2.20;99.90;;;;;;4914732;28;20053;-57
2023/12/09 07:32:35;;;;;;;55.70;18.65;;;2.20;99.90;;;;;;4910763;28;20026;-56
2023/12/09 07:35:00;;;;;;;49.13;19.40;;;2.20;99.90;;;;;;4910477;28;21638;-55
2023/12/09 07:37:26;;;;;;;48.38;17.15;;;2.30;99.90;;;;;;4939622;28;20410;-55
2023/12/09 07:39:52;;;;;;;38.20;16.80;;;2.30;99.90;;;;;;4923251;28;20521;-58
2023/12/09 07:42:17;;;;;;;36.55;17.15;;;2.30;99.90;;;;;;4941173;28;20109;-58
2023/12/09 07:44:43;;;;;;;41.67;16.45;;;2.30;99.90;;;;;;4907004;28;20026;-54
2023/12/09 07:47:08;;;;;;;28.48;15.40;;;2.30;99.90;;;;;;4899666;28;20034;-57
2023/12/09 07:49:34;;;;;;;43.03;17.10;;;2.40;99.90;;;;;;4938298;28;20026;-56
2023/12/09 07:52:00;;;;;;;45.00;15.50;;;2.40;99.90;;;;;;4909174;28;20033;-59
2023/12/09 07:54:25;;;;;;;29.33;15.60;;;2.40;99.90;;;;;;4967174;28;20095;-57
2023/12/09 07:56:51;;;;;;;44.50;17.45;;;2.40;99.90;;;;;;4965156;28;20088;-57
2023/12/09 07:59:16;;;;;;;36.47;17.02;;;2.40;99.90;;;;;;4962361;28;20049;-57
2023/12/09 08:01:42;;;;;;;31.73;16.85;;;2.40;99.90;;;;;;4969421;28;20088;-59
2023/12/09 08:04:08;;;;;;;31.15;16.13;;;2.50;99.90;;;;;;4968657;28;20030;-54
2023/12/09 08:06:33;;;;;;;36.67;16.20;;;2.50;99.90;;;;;;4965645;28;20484;-57
2023/12/09 08:08:59;;;;;;;36.83;17.02;;;2.50;99.90;;;;;;4954468;28;20041;-58
2023/12/09 08:11:24;;;;;;;33.15;14.77;;;2.50;99.90;;;;;;4957036;28;20405;-56
2023/12/09 08:13:50;;;;;;;26.35;14.93;;;2.50;99.90;;;;;;4946759;28;20037;-57
2023/12/09 08:16:15;;;;;;;34.70;15.95;;;2.50;99.90;;;;;;4961503;28;21557;-58
2023/12/09 08:18:42;;;;;;;33.88;15.73;;;2.60;99.90;;;;;;4965941;28;20022;-57
2023/12/09 08:21:09;;;;;;;28.58;13.32;;;2.60;99.90;;;;;;4964116;28;20441;-56
2023/12/09 08:23:36;;;;;;;29.75;13.48;;;2.60;99.90;;;;;;4952532;28;20053;-58
2023/12/09 08:26:02;;;;;;;27.67;13.65;;;2.60;99.90;;;;;;4955399;28;20085;-57
2023/12/09 08:28:29;;;;;;;36.35;16.13;;;2.60;99.90;;;;;;4996374;28;20477;-57
2023/12/09 08:30:55;;;;;;;32.25;15.10;;;2.60;99.90;;;;;;4939092;28;20037;-55
2023/12/09 08:33:20;;;;;;;31.73;16.45;;;2.70;99.90;;;;;;4955413;28;20611;-58
2023/12/09 08:35:46;;;;;;;25.25;13.40;;;2.70;99.90;;;;;;4910835;28;20519;-57
2023/12/09 08:38:11;;;;;;;29.08;15.68;;;2.70;99.90;;;;;;4943699;28;20030;-56
2023/12/09 08:40:37;;;;;;;26.85;14.20;;;2.80;99.90;;;;;;4990384;28;20033;-56
2023/12/09 08:43:03;;;;;;;26.20;15.50;;;2.70;99.90;;;;;;4953304;28;20100;-58
2023/12/09 08:45:31;;;;;;;28.30;13.98;;;2.80;99.90;;;;;;4933517;28;20175;-58
2023/12/09 08:47:57;;;;;;;24.77;13.07;;;2.80;99.90;;;;;;4952987;28;20026;-57
2023/12/09 08:50:22;;;;;;;25.42;14.15;;;2.80;99.90;;;;;;4956957;28;20030;-56
2023/12/09 08:52:48;;;;;;;31.27;16.17;;;2.80;99.90;;;;;;4927296;28;20058;-60
2023/12/09 08:55:14;;;;;;;23.75;14.32;;;2.80;99.90;;;;;;4999296;28;20021;-56
2023/12/09 08:57:39;;;;;;;25.73;13.48;;;2.80;99.90;;;;;;4952413;28;20026;-57
2023/12/09 09:00:08;;;;;;;26.50;15.27;;;2.80;99.90;;;;;;4929452;28;20423;-57
2023/12/09 09:02:34;;;;;;;26.33;14.77;;;2.80;99.90;;;;;;4949341;28;20235;-56
2023/12/09 09:04:59;;;;;;;23.38;12.70;;;2.90;99.90;;;;;;4938606;28;21717;-57
2023/12/09 09:07:25;;;;;;;20.00;11.70;;;2.90;99.90;;;;;;5001815;28;20034;-58
2023/12/09 09:09:50;;;;;;;27.70;13.45;;;2.90;99.90;;;;;;4946031;28;20732;-58
2023/12/09 09:12:16;;;;;;;21.42;11.80;;;2.90;99.90;;;;;;4920789;28;20018;-60
2023/12/09 09:14:41;;;;;;;20.77;12.77;;;2.90;99.90;;;;;;4950768;28;20026;-57
2023/12/09 09:17:07;;;;;;;17.58;11.50;;;2.90;99.90;;;;;;4933799;28;20885;-57
2023/12/09 09:19:34;;;;;;;21.67;12.18;;;2.90;99.90;;;;;;4953047;28;20076;-56
2023/12/09 09:21:59;;;;;;;35.90;12.55;;;2.90;99.90;;;;;;4916310;28;20053;-60
2023/12/09 09:24:25;;;;;;;24.80;12.45;;;3.00;99.90;;;;;;4889132;28;20030;-56
2023/12/09 09:26:51;;;;;;;22.27;11.23;;;3.00;99.90;;;;;;4919604;28;20049;-56
2023/12/09 09:29:17;;;;;;;27.23;12.48;;;3.00;99.90;;;;;;4939473;28;20033;-58
2023/12/09 09:31:42;;;;;;;23.77;12.70;;;3.00;99.90;;;;;;4940369;28;20506;-58
2023/12/09 09:34:08;;;;;;;26.98;12.93;;;3.00;99.90;;;;;;4955507;28;20494;-57
2023/12/09 09:36:33;;;;;;;32.50;14.90;;;3.00;99.90;;;;;;4936112;28;20900;-57
2023/12/09 09:38:59;;;;;;;28.30;15.00;;;3.00;99.90;;;;;;4948594;28;20041;-56
2023/12/09 09:41:46;;;;;;;27.65;15.73;;;3.10;99.90;;;;;;4919005;28;20034;-54
2023/12/09 09:44:17;;;;;;;31.80;15.35;;;3.10;99.90;;;;;;4914523;28;21689;-56
2023/12/09 09:46:44;;;;;;;26.02;14.60;;;3.10;99.90;;;;;;4961308;28;20027;-60
2023/12/09 09:49:11;;;;;;;23.05;14.30;;;3.10;99.90;;;;;;4940789;28;20053;-55
2023/12/09 09:51:42;;;;;;;22.95;11.38;;;3.20;99.90;;;;;;4937454;28;20025;-57
2023/12/09 09:54:18;;;;;;;30.17;14.77;;;3.20;99.90;;;;;;4923957;28;20422;-58
2023/12/09 09:56:44;;;;;;;23.75;14.05;;;3.20;99.90;;;;;;4944681;28;20102;-58
2023/12/09 09:59:11;;;;;;;25.67;11.73;;;3.20;99.90;;;;;;4886637;28;20399;-57
2023/12/09 10:01:37;;;;;;;17.15;11.07;;;3.20;99.90;;;;;;4997929;28;20183;-58
2023/12/09 10:04:03;;;;;;;30.75;13.38;;;3.20;99.90;;;;;;4912530;28;20030;-59
2023/12/09 10:06:30;;;;;;;26.00;11.68;;;3.20;99.90;;;;;;4922749;28;20208;-57
2023/12/09 10:08:57;;;;;;;19.15;12.30;;;3.20;99.90;;;;;;4942455;28;20018;-59
2023/12/09 10:11:22;;;;;;;28.13;13.15;;;3.20;99.90;;;;;;4903862;28;20030;-58
2023/12/09 10:13:48;;;;;;;29.50;11.30;;;3.20;99.90;;;;;;4931424;28;20026;-60
2023/12/09 10:16:14;;;;;;;25.33;11.85;;;3.30;99.90;;;;;;4947256;28;20341;-57
2023/12/09 10:18:46;;;;;;;22.88;12.07;;;3.30;99.90;;;;;;4938314;28;20046;-58
2023/12/09 10:21:13;;;;;;;27.67;12.65;;;3.30;99.90;;;;;;4924520;28;20041;-59
2023/12/09 10:23:39;;;;;;;30.13;13.57;;;3.40;99.90;;;;;;4902723;28;20030;-59
2023/12/09 10:26:05;;;;;;;31.20;15.30;;;3.40;99.90;;;;;;4920579;28;21935;-57
2023/12/09 10:28:31;;;;;;;40.17;19.85;;;3.40;99.90;;;;;;4986078;28;20042;-58
2023/12/09 10:30:57;;;;;;;28.75;14.25;;;3.50;99.90;;;;;;4971426;28;20117;-57
2023/12/09 10:33:22;;;;;;;26.27;15.73;;;3.50;99.90;;;;;;4995145;28;20029;-57
2023/12/09 10:35:48;;;;;;;22.73;12.40;;;3.50;99.90;;;;;;4963161;28;20030;-59
2023/12/09 10:38:15;;;;;;;23.30;11.20;;;3.50;99.90;;;;;;4973208;28;21556;-58
2023/12/09 10:40:41;;;;;;;24.55;11.57;;;3.70;99.90;;;;;;4997769;28;20111;-59
2023/12/09 10:43:07;;;;;;;24.80;14.10;;;3.70;99.90;;;;;;4976937;28;20501;-59
2023/12/09 10:45:32;;;;;;;22.75;12.48;;;3.80;99.90;;;;;;4984448;28;20033;-58
2023/12/09 10:47:58;;;;;;;24.15;12.48;;;3.80;99.90;;;;;;4993153;28;20033;-59
2023/12/09 10:50:24;;;;;;;28.45;14.80;;;3.80;99.90;;;;;;4985932;28;20034;-59
2023/12/09 10:52:49;;;;;;;29.83;14.77;;;3.80;99.90;;;;;;5002113;28;20025;-58
2023/12/09 10:55:15;;;;;;;22.67;12.00;;;3.90;99.90;;;;;;4974483;28;20112;-57
2023/12/09 10:57:43;;;;;;;26.65;13.40;;;3.90;99.90;;;;;;4981111;28;20026;-58
2023/12/09 11:00:10;;;;;;;25.42;12.57;;;3.90;99.90;;;;;;4968344;28;20034;-59
2023/12/09 11:02:39;;;;;;;20.48;11.48;;;3.90;99.90;;;;;;4984290;28;20077;-59
2023/12/09 11:05:09;;;;;;;21.65;12.30;;;3.90;99.90;;;;;;4995960;28;20067;-58
2023/12/09 11:07:36;;;;;;;25.30;10.80;;;3.90;99.90;;;;;;4976366;28;20685;-59
2023/12/09 11:10:03;;;;;;;21.52;10.23;;;3.80;99.90;;;;;;4954215;28;20487;-58
2023/12/09 11:12:32;;;;;;;22.13;10.75;;;3.80;99.90;;;;;;4962651;28;20438;-59
2023/12/09 11:15:13;;;;;;;25.05;15.45;;;3.80;99.90;;;;;;4962760;28;20482;-59
2023/12/09 11:17:40;;;;;;;24.00;12.10;;;3.70;99.90;;;;;;4992788;28;20495;-59
2023/12/09 11:20:18;;;;;;;38.38;17.63;;;3.70;99.90;;;;;;4980845;28;20092;-59
2023/12/09 11:22:45;;;;;;;30.45;15.38;;;3.70;99.90;;;;;;4985804;28;20384;-59
2023/12/09 11:25:21;;;;;;;26.10;12.57;;;3.70;99.90;;;;;;4968648;28;20037;-58
2023/12/09 11:27:53;;;;;;;;;;;3.70;99.90;;;;;;4953947;28;20091;-58
2023/12/09 11:30:33;;;;;;;20.63;10.88;;;3.80;99.90;;;;;;4970956;28;19913;-57
2023/12/09 11:32:59;;;;;;;27.00;12.50;;;3.70;99.90;;;;;;4985405;28;20018;-60
2023/12/09 11:35:26;;;;;;;23.02;11.73;;;3.80;99.90;;;;;;5002626;28;20022;-57
2023/12/09 11:37:53;;;;;;;25.73;11.10;;;3.80;99.90;;;;;;4969464;28;20028;-58
2023/12/09 11:40:19;;;;;;;23.05;10.38;;;3.80;99.90;;;;;;4996417;28;20080;-60
2023/12/09 11:42:46;;;;;;;19.10;11.93;;;3.80;99.90;;;;;;4986935;28;20096;-58
2023/12/09 11:45:12;;;;;;;31.33;14.68;;;3.80;99.90;;;;;;4989629;28;22681;-59
2023/12/09 11:47:39;;;;;;;28.60;15.13;;;3.80;99.90;;;;;;5000546;28;20034;-58
2023/12/09 11:50:07;;;;;;;22.33;12.38;;;3.90;99.90;;;;;;5003013;28;20037;-57
2023/12/09 11:52:33;;;;;;;23.58;12.63;;;3.80;99.90;;;;;;4974646;28;22190;-59
2023/12/09 11:55:04;;;;;;;19.70;11.70;;;3.90;99.90;;;;;;4977011;28;20476;-59
2023/12/09 11:57:31;;;;;;;26.98;11.82;;;3.80;99.90;;;;;;4984310;28;20032;-59
2023/12/09 11:59:56;;;;;;;25.88;12.00;;;3.90;99.90;;;;;;4970212;28;20053;-59
2023/12/09 12:02:22;;;;;;;20.02;11.45;;;3.90;99.90;;;;;;5002163;28;20085;-58
2023/12/09 12:04:48;;;;;;;23.83;11.05;;;3.80;99.90;;;;;;4974287;28;20040;-59
2023/12/09 12:07:14;;;;;;;25.00;12.95;;;3.80;99.90;;;;;;4992352;28;20049;-58
2023/12/09 12:09:39;;;;;;;26.90;13.32;;;3.80;99.90;;;;;;4991942;28;20025;-61
2023/12/09 12:12:06;;;;;;;28.65;11.98;;;3.80;99.90;;;;;;4986450;28;20018;-56
2023/12/09 12:14:32;;;;;;;29.10;13.10;;;3.80;99.90;;;;;;5002326;28;20115;-58
2023/12/09 12:16:58;;;;;;;21.70;12.25;;;3.80;99.90;;;;;;4970191;28;20522;-58
2023/12/09 12:19:25;;;;;;;23.73;10.52;;;3.70;99.90;;;;;;4984402;28;20025;-60
2023/12/09 12:21:54;;;;;;;21.40;11.30;;;3.70;99.90;;;;;;4966167;28;20034;-60
2023/12/09 12:24:19;;;;;;;15.20;10.02;;;3.70;99.90;;;;;;5005356;28;20061;-60
2023/12/09 12:26:46;;;;;;;21.85;11.20;;;3.70;99.90;;;;;;4998594;28;20053;-57
2023/12/09 12:29:18;;;;;;;15.98;10.50;;;3.70;99.90;;;;;;4965346;28;20026;-61
2023/12/09 12:31:48;;;;;;;22.10;12.65;;;3.60;99.90;;;;;;4964114;28;20030;-57
2023/12/09 12:34:18;;;;;;;24.52;11.80;;;3.60;99.90;;;;;;4967243;28;20018;-59